Time;durP1;ratioP1;P1;durP2;ratioP2;P2;SDS_P1;SDS_P2;PMS_P1;PMS_P2;Temp;Humidity;BMP_temperature;BMP_pressure;BME280_temperature;BME280_humidity;BME280_pressure;Samples;Min_cycle;Max_cycle;Signal;HPM_P1;HPM_P2
2022/12/11 00:03:04;;;;;;;57.15;30.90;;;;;;;1.46;96.28;99463.43;2564339;90;21086;-60
2022/12/11 00:07:05;;;;;;;45.23;27.93;;;;;;;1.48;96.12;99466.80;2671567;89;21085;-60
2022/12/11 00:11:15;;;;;;;44.95;29.18;;;;;;;1.47;96.45;99461.19;2671730;88;21036;-60
2022/12/11 00:15:17;;;;;;;61.95;30.40;;;;;;;1.47;96.41;99467.74;2671586;88;21036;-60
2022/12/11 00:19:18;;;;;;;43.87;27.85;;;;;;;1.50;96.49;99457.08;2662078;88;21485;-60
2022/12/11 00:23:23;;;;;;;42.23;24.02;;;;;;;1.52;96.06;99457.00;2679780;88;21046;-60
2022/12/11 00:27:24;;;;;;;46.42;26.00;;;;;;;1.47;95.29;99453.33;2667188;88;21051;-60
2022/12/11 00:31:27;;;;;;;52.43;26.52;;;;;;;1.45;95.72;99451.71;2667863;88;20972;-60
2022/12/11 00:35:28;;;;;;;38.15;23.47;;;;;;;1.44;94.98;99457.44;2663658;87;21051;-60
2022/12/11 00:40:02;;;;;;;43.10;28.05;;;;;;;1.39;95.57;99456.86;2663336;89;21094;-60
2022/12/11 00:44:04;;;;;;;43.45;24.72;;;;;;;1.42;95.24;99452.75;2664388;87;21039;-60
2022/12/11 00:48:10;;;;;;;48.10;28.60;;;;;;;1.41;95.19;99458.92;2643558;89;21093;-61
2022/12/11 00:52:11;;;;;;;47.08;26.90;;;;;;;1.40;95.60;99464.62;2637644;89;21101;-60
2022/12/11 00:56:17;;;;;;;37.45;25.12;;;;;;;1.46;95.64;99465.19;2677260;89;21038;-60
2022/12/11 01:00:19;;;;;;;43.68;24.57;;;;;;;1.48;96.05;99473.84;2678591;89;21121;-58
2022/12/11 01:04:22;;;;;;;48.15;31.27;;;;;;;1.52;95.35;99474.86;2652498;87;21071;-61
2022/12/11 01:08:23;;;;;;;44.93;29.15;;;;;;;1.53;94.76;99483.59;2675595;88;21063;-60
2022/12/11 01:12:27;;;;;;;49.90;31.70;;;;;;;1.53;95.03;99489.66;2677505;89;21044;-60
2022/12/11 01:16:42;;;;;;;43.17;27.82;;;;;;;1.48;94.26;99495.64;2678914;88;21036;-60
2022/12/11 01:20:43;;;;;;;45.70;27.50;;;;;;;1.50;95.19;99500.33;2678627;88;21099;-60
2022/12/11 01:24:45;;;;;;;47.45;28.60;;;;;;;1.47;94.40;99504.44;2678354;89;21062;-60
2022/12/11 01:28:49;;;;;;;47.75;27.95;;;;;;;1.47;94.66;99498.33;2678364;88;21008;-60
2022/12/11 01:32:52;;;;;;;46.58;30.68;;;;;;;1.47;94.53;99501.81;2678987;88;21031;-60
2022/12/11 01:37:11;;;;;;;42.10;27.93;;;;;;;1.49;95.05;99501.26;2619666;89;21029;-60
2022/12/11 01:41:13;;;;;;;45.52;28.35;;;;;;;1.48;94.24;99506.13;2620572;90;21024;-59
2022/12/11 01:45:32;;;;;;;47.10;28.75;;;;;;;1.49;94.32;99493.88;2620371;91;21027;-60
2022/12/11 01:49:34;;;;;;;53.10;31.62;;;;;;;1.45;94.44;99484.02;2617840;87;21092;-60
2022/12/11 01:53:41;;;;;;;44.53;27.75;;;;;;;1.49;94.88;99480.28;2620615;88;21083;-60
2022/12/11 01:57:45;;;;;;;45.35;27.15;;;;;;;1.45;94.81;99476.16;2583512;91;21095;-60
2022/12/11 02:02:02;;;;;;;43.30;25.37;;;;;;;1.43;94.37;99474.09;2578477;91;21107;-60
2022/12/11 02:06:04;;;;;;;46.33;27.50;;;;;;;1.42;94.75;99473.72;2664482;89;21171;-60
2022/12/11 02:10:10;;;;;;;38.75;27.60;;;;;;;1.38;93.55;99474.34;2656417;87;21031;-60
2022/12/11 02:14:29;;;;;;;42.00;30.12;;;;;;;1.40;94.56;99474.28;2659081;89;21043;-61
2022/12/11 02:18:38;;;;;;;41.48;29.55;;;;;;;1.47;95.15;99467.74;2664401;87;21016;-60
2022/12/11 02:23:07;;;;;;;54.93;31.20;;;;;;;1.46;94.49;99475.67;2623106;89;21015;-61
2022/12/11 02:27:31;;;;;;;46.28;30.75;;;;;;;1.40;93.94;99484.27;2636884;89;21042;-60
2022/12/11 02:32:00;;;;;;;55.40;31.65;;;;;;;1.34;93.96;99468.91;2637157;89;21071;-60
2022/12/11 02:36:22;;;;;;;48.05;27.77;;;;;;;1.27;94.98;99463.16;2655243;86;21423;-61
2022/12/11 02:40:27;;;;;;;45.33;26.20;;;;;;;1.20;95.30;99464.91;2664888;89;21019;-60
2022/12/11 02:44:35;;;;;;;43.15;25.65;;;;;;;1.15;95.27;99462.53;2665112;89;21057;-60
2022/12/11 02:48:37;;;;;;;43.60;28.62;;;;;;;1.17;96.18;99464.60;2660192;89;21115;-60
2022/12/11 02:52:40;;;;;;;43.70;28.52;;;;;;;1.10;96.07;99461.95;2633663;90;21050;-60
2022/12/11 02:56:56;;;;;;;45.75;28.27;;;;;;;1.05;95.73;99459.58;2660554;87;21110;-61
2022/12/11 03:00:58;;;;;;;49.73;30.40;;;;;;;0.96;96.22;99467.48;2675835;88;21046;-60
2022/12/11 03:05:00;;;;;;;53.38;23.20;;;;;;;0.93;96.96;99466.83;2675472;89;21035;-60
2022/12/11 03:09:03;;;;;;;41.35;25.48;;;;;;;0.65;97.40;99477.02;2675857;88;21035;-60
2022/12/11 03:13:05;;;;;;;39.95;24.37;;;;;;;0.69;97.48;99472.00;2675864;86;21083;-60
2022/12/11 03:17:33;;;;;;;46.98;26.95;;;;;;;0.64;97.53;99470.10;2675783;88;21111;-60
2022/12/11 03:26:27;;;;;;;41.13;27.62;;;;;;;0.75;97.87;99460.80;2675765;88;21047;-60
2022/12/11 03:30:32;;;;;;;42.67;28.10;;;;;;;0.69;96.37;99452.36;2675355;87;21008;-60
2022/12/11 03:34:46;;;;;;;34.08;25.15;;;;;;;0.77;97.72;99445.86;2674208;86;20999;-60
2022/12/11 03:38:55;;;;;;;41.45;24.95;;;;;;;0.67;96.92;99458.60;2670079;87;21107;-60
2022/12/11 03:42:57;;;;;;;43.60;23.70;;;;;;;0.66;97.16;99455.61;2674733;88;21051;-59
2022/12/11 03:47:01;;;;;;;42.75;28.12;;;;;;;0.63;96.81;99453.16;2674910;88;21060;-60
2022/12/11 03:51:05;;;;;;;38.02;25.88;;;;;;;0.67;97.60;99443.75;2675055;86;21018;-60
2022/12/11 03:55:11;;;;;;;44.60;27.07;;;;;;;0.77;96.80;99439.31;2655128;89;21031;-60
2022/12/11 03:59:12;;;;;;;37.23;24.65;;;;;;;0.73;96.01;99451.75;2675111;89;21027;-60
2022/12/11 04:03:15;;;;;;;44.48;25.80;;;;;;;0.76;95.67;99448.95;2666619;87;21270;-61
2022/12/11 04:07:16;;;;;;;31.90;22.75;;;;;;;0.75;96.74;99428.94;2601450;91;21139;-60
2022/12/11 04:11:36;;;;;;;34.48;22.85;;;;;;;0.73;96.25;99429.94;2661830;88;21034;-60
2022/12/11 04:15:39;;;;;;;45.40;26.30;;;;;;;0.74;96.37;99434.25;2697173;88;21098;-60
2022/12/11 04:24:15;;;;;;;35.88;19.48;;;;;;;0.57;97.78;99446.47;2661893;88;21063;-61
2022/12/11 04:28:16;;;;;;;40.78;25.00;;;;;;;0.47;97.69;99446.60;2674797;89;21075;-60
2022/12/11 04:32:17;;;;;;;49.00;27.15;;;;;;;0.48;97.32;99443.89;2674734;87;21038;-60
2022/12/11 04:36:18;;;;;;;36.65;24.25;;;;;;;0.48;97.45;99434.73;2687907;87;21015;-60
2022/12/11 04:40:20;;;;;;;38.05;23.83;;;;;;;0.44;97.65;99442.84;2725307;86;21010;-60
2022/12/11 04:44:21;;;;;;;42.50;24.98;;;;;;;0.58;97.46;99431.15;2725099;86;21094;-60
2022/12/11 04:48:22;;;;;;;44.55;27.00;;;;;;;0.56;97.25;99428.63;2701957;85;21576;-60
2022/12/11 04:52:29;;;;;;;43.70;24.98;;;;;;;0.69;97.63;99427.50;2710085;87;21000;-60
2022/12/11 04:56:30;;;;;;;41.73;24.55;;;;;;;0.68;98.15;99427.12;2711380;87;21004;-60
2022/12/11 05:00:31;;;;;;;52.03;29.85;;;;;;;0.70;97.46;99425.26;2722059;87;21131;-60
2022/12/11 05:04:43;;;;;;;36.85;22.30;;;;;;;0.64;97.48;99420.81;2721422;87;21039;-60
2022/12/11 05:08:45;;;;;;;43.58;26.05;;;;;;;0.51;98.21;99412.34;2724761;87;21030;-60
2022/12/11 05:12:46;;;;;;;44.33;24.95;;;;;;;0.49;97.69;99412.03;2721420;87;21042;-60
2022/12/11 05:16:55;;;;;;;49.38;26.05;;;;;;;0.40;97.72;99412.06;2715375;87;21038;-60
2022/12/11 05:21:04;;;;;;;43.92;27.95;;;;;;;0.35;97.19;99420.16;2711773;86;21043;-60
2022/12/11 05:25:08;;;;;;;47.98;28.25;;;;;;;0.32;97.89;99409.86;2712447;87;21024;-59
2022/12/11 05:29:11;;;;;;;50.17;24.70;;;;;;;0.28;97.46;99409.64;2712064;87;21059;-60
2022/12/11 05:33:23;;;;;;;41.63;24.18;;;;;;;0.26;98.22;99404.48;2705216;87;21051;-60
2022/12/11 05:37:25;;;;;;;40.33;22.48;;;;;;;0.22;97.21;99406.88;2684716;86;21016;-59
2022/12/11 05:41:29;;;;;;;39.25;24.27;;;;;;;0.16;97.91;99419.44;2673055;89;21011;-59
2022/12/11 05:45:30;;;;;;;37.98;23.15;;;;;;;0.12;98.18;99419.60;2674943;87;21324;-60
2022/12/11 05:49:56;;;;;;;44.15;24.23;;;;;;;-0.05;98.70;99415.27;2678793;88;21067;-59
2022/12/11 05:53:57;;;;;;;41.92;27.30;;;;;;;0.07;99.14;99415.53;2651431;89;20992;-59
2022/12/11 05:57:59;;;;;;;43.58;27.20;;;;;;;0.19;98.47;99416.20;2674921;89;20968;-60
2022/12/11 06:02:00;;;;;;;39.13;25.02;;;;;;;0.23;98.25;99421.66;2675091;88;20960;-60
2022/12/11 06:06:06;;;;;;;36.58;24.80;;;;;;;0.30;96.95;99422.17;2674856;89;21016;-61
2022/12/11 06:10:17;;;;;;;33.18;23.98;;;;;;;0.39;96.61;99429.55;2650540;88;21062;-59
2022/12/11 06:14:19;;;;;;;40.17;23.55;;;;;;;0.47;95.89;99433.52;2652692;89;21056;-60
2022/12/11 06:18:20;;;;;;;41.60;26.52;;;;;;;0.49;95.82;99436.89;2633097;90;21058;-59
2022/12/11 06:22:24;;;;;;;48.20;26.52;;;;;;;0.54;95.62;99424.40;2650273;87;20992;-60
2022/12/11 06:26:26;;;;;;;34.25;22.05;;;;;;;0.54;96.01;99429.63;2638682;87;21050;-60
2022/12/11 06:30:27;;;;;;;38.67;25.62;;;;;;;0.53;94.96;99429.25;2654245;88;21047;-61
2022/12/11 06:34:29;;;;;;;40.33;22.65;;;;;;;0.47;95.93;99426.50;2649877;89;20984;-60
2022/12/11 06:38:30;;;;;;;37.60;23.18;;;;;;;0.39;96.21;99427.38;2661933;86;21016;-60
2022/12/11 06:42:53;;;;;;;41.80;24.40;;;;;;;0.43;96.51;99435.45;2621000;91;21046;-60
2022/12/11 06:46:54;;;;;;;30.85;21.27;;;;;;;0.28;96.38;99441.03;2607361;90;21119;-60
2022/12/11 06:51:10;;;;;;;35.17;23.50;;;;;;;0.26;96.21;99445.51;2642178;87;20982;-60
2022/12/11 06:55:11;;;;;;;33.35;17.35;;;;;;;0.18;97.59;99460.74;2686750;86;21040;-60
2022/12/11 06:59:12;;;;;;;36.98;26.57;;;;;;;0.11;98.40;99459.77;2686334;88;21049;-61
2022/12/11 07:03:14;;;;;;;37.45;21.33;;;;;;;0.11;98.44;99458.45;2700514;87;21046;-60
2022/12/11 07:07:16;;;;;;;35.55;19.15;;;;;;;0.03;98.14;99461.08;2691931;88;21053;-60
2022/12/11 07:11:20;;;;;;;38.38;19.40;;;;;;;-0.08;98.60;99459.87;2684899;88;21110;-60
2022/12/11 07:15:21;;;;;;;36.90;19.23;;;;;;;-0.15;98.75;99446.27;2686415;87;21083;-60
2022/12/11 07:19:23;;;;;;;25.97;16.02;;;;;;;-0.15;99.35;99448.02;2686329;88;21014;-60
2022/12/11 07:23:27;;;;;;;29.45;18.23;;;;;;;-0.24;99.08;99448.02;2686897;87;21005;-59
2022/12/11 07:27:29;;;;;;;26.30;15.25;;;;;;;-0.14;99.50;99456.25;2685459;84;21078;-60
2022/12/11 07:31:31;;;;;;;31.35;17.52;;;;;;;-0.30;98.83;99457.02;2686284;88;21103;-60
2022/12/11 07:35:34;;;;;;;26.85;17.92;;;;;;;-0.33;99.59;99469.41;2685820;88;21007;-60
2022/12/11 07:39:36;;;;;;;32.38;15.75;;;;;;;-0.39;98.84;99468.39;2712661;85;21003;-60
2022/12/11 07:44:29;;;;;;;23.32;16.42;;;;;;;-0.36;98.56;99466.95;2713713;88;21015;-59
2022/12/11 07:48:31;;;;;;;25.62;15.25;;;;;;;-0.42;98.34;99468.55;2705975;88;21008;-60
2022/12/11 07:52:33;;;;;;;33.13;19.05;;;;;;;-0.36;98.32;99463.86;2707207;85;21036;-61
2022/12/11 07:56:34;;;;;;;31.07;20.45;;;;;;;-0.26;97.31;99466.86;2706841;87;21098;-59
2022/12/11 08:00:35;;;;;;;42.03;24.30;;;;;;;-0.26;97.11;99470.78;2709386;87;21031;-60
2022/12/11 08:04:37;;;;;;;35.00;22.00;;;;;;;-0.20;97.55;99467.84;2703186;86;21004;-60
2022/12/11 08:08:40;;;;;;;28.17;16.90;;;;;;;-0.19;96.76;99468.71;2714549;86;20991;-58
2022/12/11 08:12:54;;;;;;;33.08;18.45;;;;;;;-0.25;96.28;99462.50;2707790;86;21000;-60
2022/12/11 08:16:56;;;;;;;33.02;16.32;;;;;;;-0.13;96.00;99459.24;2707566;88;21059;-60
2022/12/11 08:21:28;;;;;;;52.43;27.70;;;;;;;-0.20;95.98;99467.02;2700182;88;21075;-60
2022/12/11 08:25:29;;;;;;;35.13;22.85;;;;;;;-0.15;97.01;99470.23;2709542;87;20993;-59
2022/12/11 08:29:30;;;;;;;31.62;18.50;;;;;;;-0.20;95.15;99471.77;2709337;87;21122;-60
2022/12/11 08:34:28;;;;;;;32.88;19.25;;;;;;;-0.20;95.77;99477.00;2695964;87;21051;-60
2022/12/11 08:38:37;;;;;;;;;;;;;;;-0.18;95.33;99472.57;2691593;87;21071;-60
2022/12/11 08:42:38;;;;;;;24.00;16.25;;;;;;;-0.11;96.37;99472.25;2674631;88;20097;-60
2022/12/11 08:46:39;;;;;;;29.15;17.80;;;;;;;-0.05;94.76;99474.55;2628921;88;21059;-60
2022/12/11 08:51:00;;;;;;;223.13;100.92;;;;;;;-0.01;94.84;99466.47;2674552;86;21965;-60
2022/12/11 08:55:02;;;;;;;266.08;115.88;;;;;;;0.03;94.95;99465.00;2674753;88;21084;-59
2022/12/11 08:59:12;;;;;;;218.05;93.37;;;;;;;-0.08;93.88;99466.86;2672794;89;21030;-59
2022/12/11 09:03:13;;;;;;;88.60;50.52;;;;;;;0.05;95.31;99474.47;2675811;88;21023;-59
2022/12/11 09:07:14;;;;;;;26.07;15.15;;;;;;;-0.01;94.03;99472.15;2674106;88;21008;-58
2022/12/11 09:11:25;;;;;;;24.02;15.25;;;;;;;-0.05;92.75;99467.56;2673314;86;21082;-59
2022/12/11 09:15:26;;;;;;;28.25;16.30;;;;;;;-0.20;93.32;99466.55;2665290;89;21039;-59
2022/12/11 09:19:29;;;;;;;24.87;16.07;;;;;;;-0.06;94.58;99464.56;2674975;88;21042;-59
2022/12/11 09:23:30;;;;;;;23.02;14.63;;;;;;;-0.09;92.67;99459.50;2675708;85;20964;-59
2022/12/11 09:27:35;;;;;;;19.02;13.20;;;;;;;-0.18;92.41;99452.96;2658962;88;21517;-59
2022/12/11 09:31:36;;;;;;;25.68;16.67;;;;;;;-0.18;91.35;99450.80;2674636;88;21028;-58
2022/12/11 09:35:37;;;;;;;26.37;16.52;;;;;;;-0.20;92.05;99440.88;2669992;88;21098;-59
2022/12/11 09:39:46;;;;;;;21.48;12.15;;;;;;;-0.11;93.39;99439.56;2708783;87;21028;-58
2022/12/11 09:44:12;;;;;;;23.85;15.78;;;;;;;-0.19;92.59;99432.11;2695067;87;20957;-59
2022/12/11 09:48:17;;;;;;;19.32;9.83;;;;;;;0.04;92.34;99432.25;2692788;87;21122;-59
2022/12/11 09:52:42;;;;;;;24.53;14.10;;;;;;;0.05;91.34;99435.69;2694360;88;21055;-59
2022/12/11 09:57:17;;;;;;;27.42;16.02;;;;;;;0.03;90.94;99429.25;2665599;89;21157;-61
2022/12/11 10:01:47;;;;;;;19.50;11.73;;;;;;;0.11;91.35;99413.99;2734534;86;21063;-58
2022/12/11 10:06:02;;;;;;;22.80;14.20;;;;;;;0.10;89.53;99412.30;2709578;85;21019;-59
2022/12/11 10:10:21;;;;;;;20.62;14.15;;;;;;;0.12;89.64;99405.70;2693776;88;21075;-60
2022/12/11 10:15:03;;;;;;;21.68;14.18;;;;;;;0.07;90.49;99402.45;2699338;87;21122;-60
2022/12/11 10:19:28;;;;;;;33.08;17.40;;;;;;;0.04;89.86;99398.70;2692301;87;21091;-60
2022/12/11 10:23:35;;;;;;;35.92;16.95;;;;;;;0.01;90.23;99393.64;2705815;87;21043;-60
2022/12/11 10:27:39;;;;;;;22.60;16.15;;;;;;;-0.02;90.67;99389.40;2684275;88;21031;-59
2022/12/11 10:31:59;;;;;;;19.23;11.85;;;;;;;0.02;89.93;99385.72;2679198;86;21848;-60
2022/12/11 10:36:00;;;;;;;21.90;13.55;;;;;;;-0.07;87.58;99383.58;2709091;88;20979;-59
2022/12/11 10:40:02;;;;;;;23.10;15.18;;;;;;;-0.19;86.93;99376.77;2720554;86;21005;-59
2022/12/11 10:44:33;;;;;;;53.55;32.98;;;;;;;-0.13;88.06;99376.06;2717205;86;21073;-60
2022/12/11 10:48:38;;;;;;;204.00;89.67;;;;;;;-0.21;88.32;99377.28;2687140;87;21039;-60
2022/12/11 10:52:44;;;;;;;139.30;67.53;;;;;;;-0.19;87.46;99374.16;2694344;87;21050;-60
2022/12/11 10:56:48;;;;;;;98.62;51.28;;;;;;;-0.09;87.94;99364.06;2659660;87;21026;-59
2022/12/11 11:01:08;;;;;;;110.83;49.58;;;;;;;0.01;87.81;99350.48;2712924;87;21082;-61
2022/12/11 11:05:19;;;;;;;41.28;24.47;;;;;;;-0.14;89.39;99355.59;2697312;87;21066;-59
2022/12/11 11:09:35;;;;;;;48.13;23.25;;;;;;;-0.04;93.35;99351.59;2719866;87;20981;-60
2022/12/11 11:13:37;;;;;;;44.25;22.15;;;;;;;-0.13;92.47;99348.61;2687419;88;20999;-60
2022/12/11 11:17:54;;;;;;;36.35;22.65;;;;;;;-0.09;94.62;99339.23;2711540;87;21039;-60
2022/12/11 11:22:10;;;;;;;41.25;20.70;;;;;;;-0.22;92.52;99331.16;2683080;87;21097;-59
2022/12/11 11:26:12;;;;;;;37.30;23.73;;;;;;;-0.21;93.76;99335.46;2724289;86;21031;-59
2022/12/11 11:30:37;;;;;;;47.00;22.82;;;;;;;-0.25;92.97;99324.80;2750895;86;20988;-59
2022/12/11 11:34:39;;;;;;;37.93;19.23;;;;;;;-0.23;92.29;99325.55;2724701;87;21059;-59
2022/12/11 11:39:24;;;;;;;38.17;15.45;;;;;;;-0.37;90.65;99325.45;2696171;87;21093;-59
2022/12/11 11:43:43;;;;;;;36.60;19.07;;;;;;;-0.50;91.79;99322.16;2661488;89;20988;-59
2022/12/11 11:48:08;;;;;;;34.20;20.37;;;;;;;-0.41;92.05;99317.36;2669046;88;21093;-59
2022/12/11 11:52:35;;;;;;;27.40;18.55;;;;;;;-0.30;91.69;99315.87;2664521;89;21063;-60
2022/12/11 11:56:38;;;;;;;37.48;20.40;;;;;;;-0.35;90.36;99323.13;2664928;89;21086;-60
2022/12/11 12:05:02;;;;;;;32.65;20.77;;;;;;;-0.41;92.54;99313.45;2756763;86;21118;-58
2022/12/11 12:09:03;;;;;;;33.23;16.82;;;;;;;-0.37;93.84;99310.60;2640154;85;70953;-91
2022/12/11 12:13:26;;;;;;;25.15;18.25;;;;;;;-0.40;92.42;99313.83;2725549;86;21123;-91
2022/12/11 12:17:55;;;;;;;34.27;18.85;;;;;;;-0.38;94.34;99302.86;2731197;85;21680;-91
2022/12/11 12:22:02;;;;;;;31.20;19.17;;;;;;;-0.44;93.04;99303.54;2709359;86;21638;-89
2022/12/11 12:26:27;;;;;;;39.25;20.05;;;;;;;-0.39;92.91;99302.00;2695144;87;21603;-91
2022/12/11 12:30:34;;;;;;;32.17;18.02;;;;;;;-0.38;94.31;99295.84;2728043;86;21018;-91
2022/12/11 12:34:58;;;;;;;29.85;20.88;;;;;;;-0.41;93.07;99301.69;2726350;85;21513;-92
2022/12/11 12:39:07;;;;;;;36.73;25.65;;;;;;;-0.42;94.06;99306.53;2727117;86;21074;-91
2022/12/11 12:43:29;;;;;;;26.15;18.05;;;;;;;-0.39;93.49;99311.14;2704464;85;21134;-94
2022/12/11 12:47:34;;;;;;;27.35;17.87;;;;;;;-0.47;95.01;99301.56;2714698;85;21030;-93
2022/12/11 12:51:36;;;;;;;27.10;15.80;;;;;;;-0.54;89.98;99301.48;2699729;85;21040;-91
2022/12/11 12:55:39;;;;;;;30.82;16.52;;;;;;;-0.67;93.17;99299.97;2727911;85;21003;-94
2022/12/11 12:59:40;;;;;;;30.70;18.35;;;;;;;-0.52;94.06;99289.19;2727399;85;21469;-92
2022/12/11 13:04:00;;;;;;;32.05;20.02;;;;;;;-0.55;92.95;99286.29;2731541;86;21063;-91
2022/12/11 13:08:04;;;;;;;33.50;20.95;;;;;;;-0.52;93.09;99282.20;2717622;85;21060;-91
2022/12/11 13:12:14;;;;;;;38.30;17.55;;;;;;;-0.53;92.26;99290.97;2740984;83;21501;-92
2022/12/11 13:16:21;;;;;;;37.93;20.15;;;;;;;-0.61;92.18;99293.97;2731472;85;21084;-92
2022/12/11 13:20:26;;;;;;;32.08;17.10;;;;;;;-0.54;94.56;99294.51;2747746;85;21037;-88
2022/12/11 13:24:32;;;;;;;34.33;18.42;;;;;;;-0.55;95.13;99295.43;2746422;85;21029;-90
2022/12/11 13:28:41;;;;;;;39.33;20.80;;;;;;;-0.51;93.21;99299.56;2735952;85;21059;-87
2022/12/11 13:33:09;;;;;;;31.73;15.83;;;;;;;-0.50;94.47;99290.80;2731690;86;21172;-91
2022/12/11 13:37:40;;;;;;;30.05;19.82;;;;;;;-0.53;91.63;99301.86;2731743;85;21064;-91
2022/12/11 13:41:47;;;;;;;25.52;17.35;;;;;;;-0.48;92.43;99298.09;2732810;84;21568;-90
2022/12/11 13:45:55;;;;;;;24.43;17.10;;;;;;;-0.55;93.38;99304.58;2748605;85;21075;-92
2022/12/11 13:50:21;;;;;;;28.70;17.77;;;;;;;-0.60;92.33;99302.19;2734649;85;20996;-95
2022/12/11 13:54:24;;;;;;;26.55;16.65;;;;;;;-0.62;91.32;99305.80;2734799;84;21056;-89
2022/12/11 13:58:28;;;;;;;25.12;19.60;;;;;;;-0.53;90.67;99307.95;2756215;85;21088;-94
2022/12/11 14:02:39;;;;;;;23.80;15.20;;;;;;;-0.51;92.34;99303.94;2746182;85;21056;-90
2022/12/11 14:06:41;;;;;;;39.13;17.42;;;;;;;-0.49;92.59;99299.02;2747904;85;22185;-91
2022/12/11 14:10:43;;;;;;;23.80;15.35;;;;;;;-0.57;90.98;99302.51;2745270;85;21067;-92
2022/12/11 14:14:54;;;;;;;38.05;17.32;;;;;;;-0.67;90.38;99296.91;2702429;87;21068;-86
2022/12/11 14:19:03;;;;;;;28.55;15.05;;;;;;;-0.73;91.43;99305.04;2794241;83;21008;-92
2022/12/11 14:23:23;;;;;;;35.08;16.02;;;;;;;-0.72;92.17;99302.36;2790784;83;21010;-88
2022/12/11 14:27:27;;;;;;;29.80;16.57;;;;;;;-0.67;91.67;99303.89;2790075;83;21029;-90
2022/12/11 14:31:43;;;;;;;51.85;33.25;;;;;;;-0.66;91.80;99296.43;2790593;83;21023;-92
2022/12/11 14:35:45;;;;;;;;;;;;;;;-0.60;91.38;99300.03;2804065;83;21496;-88
2022/12/11 14:40:09;;;;;;;26.23;16.17;;;;;;;-0.70;90.41;99297.04;2786515;84;20139;-92
2022/12/11 14:44:16;;;;;;;30.62;17.92;;;;;;;-0.74;91.69;99306.82;2783857;83;20977;-93
2022/12/11 14:48:23;;;;;;;28.47;12.88;;;;;;;-0.67;91.06;99302.58;2757130;84;21020;-92
2022/12/11 14:52:36;;;;;;;;;;;;;;;-0.77;90.88;99306.13;2789979;84;21036;-93
2022/12/11 14:56:37;;;;;;;24.25;15.83;;;;;;;-0.68;91.34;99307.42;2789050;83;20106;-92
2022/12/11 15:00:39;;;;;;;28.23;17.02;;;;;;;-0.67;90.96;99311.72;2804785;83;21100;-91
2022/12/11 15:04:40;;;;;;;26.82;15.72;;;;;;;-0.68;92.51;99303.06;2774043;83;20969;-92
2022/12/11 15:08:42;;;;;;;45.33;28.38;;;;;;;-0.67;92.10;99315.64;2793045;83;21003;-91
2022/12/11 15:12:44;;;;;;;30.40;16.02;;;;;;;-0.65;90.10;99312.48;2780938;83;21135;-92
2022/12/11 15:16:47;;;;;;;27.55;15.93;;;;;;;-0.64;90.50;99315.48;2769692;84;21611;-91
2022/12/11 15:20:53;;;;;;;35.17;19.80;;;;;;;-0.64;92.18;99310.25;2766893;84;21641;-91
2022/12/11 15:24:54;;;;;;;30.62;21.65;;;;;;;-0.69;90.70;99313.58;2772237;84;21709;-91
2022/12/11 15:29:03;;;;;;;37.55;20.08;;;;;;;-0.58;90.60;99304.27;2766971;84;22257;-92
2022/12/11 15:33:13;;;;;;;30.72;19.12;;;;;;;-0.65;91.71;99317.71;2723850;84;21039;-90
2022/12/11 15:37:22;;;;;;;26.02;17.67;;;;;;;-0.74;90.85;99300.30;2749640;85;21064;-89
2022/12/11 15:41:24;;;;;;;22.95;16.10;;;;;;;-0.69;90.76;99313.58;2766599;84;21116;-91
2022/12/11 15:45:27;;;;;;;21.73;13.68;;;;;;;-0.60;90.86;99308.72;2768623;83;21122;-91
2022/12/11 15:49:29;;;;;;;23.87;16.23;;;;;;;-0.65;88.51;99316.41;2761990;84;21091;-92
2022/12/11 15:53:30;;;;;;;31.62;16.42;;;;;;;-0.62;89.29;99308.41;2762919;83;21012;-90
2022/12/11 15:57:32;;;;;;;27.90;17.27;;;;;;;-0.62;89.40;99308.41;2762845;83;21005;-92
2022/12/11 16:01:33;;;;;;;23.67;14.95;;;;;;;-0.69;90.40;99318.80;2762393;84;21008;-93
2022/12/11 16:05:35;;;;;;;29.05;19.07;;;;;;;-0.64;91.87;99321.56;2758416;83;21027;-89
2022/12/11 16:09:36;;;;;;;30.15;17.60;;;;;;;-0.67;92.03;99316.95;2724786;84;21500;-90
2022/12/11 16:13:38;;;;;;;33.23;18.60;;;;;;;-0.67;92.97;99316.95;2755252;84;21000;-90
2022/12/11 16:17:40;;;;;;;27.62;16.17;;;;;;;-0.64;94.23;99312.42;2702773;86;21645;-90
2022/12/11 16:21:41;;;;;;;30.10;18.62;;;;;;;-0.61;93.76;99310.09;2704268;85;21470;-90
2022/12/11 16:25:44;;;;;;;28.75;20.62;;;;;;;-0.72;93.05;99302.36;2702875;85;21021;-92
2022/12/11 16:29:46;;;;;;;27.75;17.07;;;;;;;-0.60;93.88;99310.03;2703508;86;21046;-89
2022/12/11 16:33:48;;;;;;;35.98;14.87;;;;;;;-0.73;92.02;99308.51;2682601;86;23409;-89
2022/12/11 16:37:53;;;;;;;24.40;17.23;;;;;;;-0.70;92.67;99307.48;2696229;86;21031;-90
2022/12/11 16:41:54;;;;;;;27.77;16.45;;;;;;;-0.69;92.77;99303.95;2705100;86;21669;-90
2022/12/11 16:45:56;;;;;;;25.27;10.72;;;;;;;-0.77;92.26;99287.84;2610114;87;21066;-90
2022/12/11 16:49:58;;;;;;;26.02;15.40;;;;;;;-0.75;92.62;99302.97;2703184;86;21053;-90
2022/12/11 16:53:59;;;;;;;30.65;17.82;;;;;;;-0.67;93.26;99294.75;2707598;86;21110;-90
2022/12/11 16:58:00;;;;;;;30.75;18.57;;;;;;;-0.65;94.14;99290.28;2636838;88;21574;-90
2022/12/11 17:02:02;;;;;;;22.37;13.90;;;;;;;-0.68;93.34;99285.22;2701446;86;21098;-91
2022/12/11 17:06:09;;;;;;;30.40;18.70;;;;;;;-0.67;92.64;99289.52;2707304;85;21586;-92
2022/12/11 17:10:10;;;;;;;;;;;;;;;-0.62;93.92;99279.67;2763540;84;21004;-93
2022/12/11 17:14:11;;;;;;;37.65;19.80;;;;;;;-0.65;94.14;99287.67;2725225;84;20151;-90
2022/12/11 17:18:13;;;;;;;26.42;18.90;;;;;;;-0.65;94.43;99280.70;2674745;86;21102;-91
2022/12/11 17:22:14;;;;;;;31.17;20.20;;;;;;;-0.76;92.74;99282.55;2602423;88;21084;-87
2022/12/11 17:26:17;;;;;;;32.40;16.35;;;;;;;-0.65;95.65;99285.06;2736246;86;21008;-88
2022/12/11 17:30:18;;;;;;;39.73;21.30;;;;;;;-0.81;94.21;99291.06;2734362;85;21055;-90
2022/12/11 17:34:20;;;;;;;35.33;22.48;;;;;;;-0.72;94.81;99289.30;2717432;86;21200;-92
2022/12/11 17:38:21;;;;;;;31.42;20.43;;;;;;;-0.80;94.45;99291.92;2689171;86;21186;-92
2022/12/11 17:42:23;;;;;;;38.38;21.57;;;;;;;-0.82;94.38;99300.30;2709328;86;21060;-91
2022/12/11 17:46:24;;;;;;;30.30;15.75;;;;;;;-0.86;94.54;99277.41;2682199;86;21052;-90
2022/12/11 17:50:25;;;;;;;38.13;19.70;;;;;;;-0.87;95.63;99290.08;2695529;86;21033;-90
2022/12/11 17:54:27;;;;;;;30.37;19.85;;;;;;;-0.81;96.74;99275.88;2734504;85;21481;-90
2022/12/11 17:58:29;;;;;;;47.98;20.82;;;;;;;-0.76;95.59;99294.75;2703598;86;21043;-91
2022/12/11 18:02:30;;;;;;;32.28;20.30;;;;;;;-0.96;94.46;99295.77;2692334;86;21087;-89
2022/12/11 18:06:32;;;;;;;31.65;16.37;;;;;;;-0.84;96.87;99301.66;2729342;85;21041;-89
2022/12/11 18:10:36;;;;;;;27.73;16.15;;;;;;;-0.83;96.39;99297.30;2736591;84;21087;-92
2022/12/11 18:14:37;;;;;;;28.50;16.80;;;;;;;-0.87;96.28;99292.69;2740489;85;21035;-92
2022/12/11 18:18:39;;;;;;;31.37;18.92;;;;;;;-0.81;96.40;99295.45;2665253;87;21572;-90
2022/12/11 18:22:40;;;;;;;29.80;19.20;;;;;;;-0.86;96.66;99302.20;2739721;85;21068;-91
2022/12/11 18:26:42;;;;;;;34.63;19.67;;;;;;;-0.84;97.55;99311.28;2727647;85;21646;-90
2022/12/11 18:30:43;;;;;;;33.85;20.77;;;;;;;-0.91;97.07;99288.55;2728872;85;21104;-91
2022/12/11 18:34:45;;;;;;;29.15;17.52;;;;;;;-0.83;97.91;99301.22;2743573;84;21092;-91
2022/12/11 18:38:47;;;;;;;25.30;17.42;;;;;;;-1.05;97.26;99299.20;2647038;87;21069;-92
2022/12/11 18:42:48;;;;;;;29.95;20.23;;;;;;;-1.07;98.32;99294.53;2728071;86;21089;-92
2022/12/11 18:46:49;;;;;;;45.73;20.57;;;;;;;-0.95;98.91;99289.63;2738435;85;21087;-91
2022/12/11 18:50:51;;;;;;;31.85;17.20;;;;;;;-1.04;98.89;99290.45;2739286;85;20991;-93
2022/12/11 18:54:52;;;;;;;27.32;15.05;;;;;;;-1.03;98.53;99288.23;2724548;85;21044;-92
2022/12/11 18:58:54;;;;;;;34.80;22.35;;;;;;;-0.98;99.09;99293.67;2736684;84;21080;-92
2022/12/11 19:02:55;;;;;;;26.50;17.55;;;;;;;-0.95;99.32;99294.38;2734404;85;21662;-92
2022/12/11 19:06:59;;;;;;;35.98;24.05;;;;;;;-0.97;98.96;99304.53;2660541;86;21052;-91
2022/12/11 19:11:01;;;;;;;27.67;19.42;;;;;;;-0.90;98.99;99298.06;2673661;87;21080;-91
2022/12/11 19:15:02;;;;;;;28.05;20.00;;;;;;;-0.96;98.71;99290.08;2741099;85;21020;-90
2022/12/11 19:19:11;;;;;;;32.20;20.85;;;;;;;-0.89;98.92;99294.53;2716380;85;21008;-92